createdAt,value
2023-03-18T00:00:52.244Z,2.53
2023-03-18T00:03:20.777Z,2.00
2023-03-18T00:05:50.592Z,2.95
2023-03-18T00:08:19.548Z,2.70
2023-03-18T00:10:52.057Z,2.53
2023-03-18T00:13:20.636Z,2.72
2023-03-18T00:15:51.958Z,2.58
2023-03-18T00:18:21.264Z,2.50
2023-03-18T00:20:50.916Z,3.42
2023-03-18T00:23:19.189Z,2.90
2023-03-18T00:25:49.939Z,2.75
2023-03-18T00:28:18.980Z,2.20
2023-03-18T00:30:51.569Z,2.30
2023-03-18T00:33:21.500Z,3.63
2023-03-18T00:35:51.942Z,2.70
2023-03-18T00:38:21.588Z,2.47
2023-03-18T00:41:01.394Z,3.00
2023-03-18T00:43:35.934Z,3.30
2023-03-18T00:46:05.520Z,2.53
2023-03-18T00:48:34.241Z,2.72
2023-03-18T00:51:04.261Z,3.13
2023-03-18T00:53:32.720Z,2.55
2023-03-18T00:56:01.665Z,2.92
2023-03-18T00:58:30.080Z,2.35
2023-03-18T01:00:58.844Z,3.28
2023-03-18T01:03:27.400Z,3.40
2023-03-18T01:05:56.311Z,2.42
2023-03-18T01:08:27.056Z,3.22
2023-03-18T01:10:55.533Z,2.92
2023-03-18T01:13:25.794Z,2.85
2023-03-18T01:15:56.121Z,3.05
2023-03-18T01:18:24.963Z,2.38
2023-03-18T01:20:55.806Z,2.75
2023-03-18T01:23:26.172Z,2.95
2023-03-18T01:25:55.850Z,2.78
2023-03-18T01:28:24.830Z,3.80
2023-03-18T01:30:54.080Z,3.67
2023-03-18T01:33:24.078Z,2.78
2023-03-18T01:35:55.808Z,3.28
2023-03-18T01:38:27.417Z,3.03
2023-03-18T01:40:57.164Z,2.92
2023-03-18T01:43:28.033Z,2.95
2023-03-18T01:45:59.464Z,3.00
2023-03-18T01:48:33.379Z,2.72
2023-03-18T01:51:08.657Z,2.75
2023-03-18T01:53:43.594Z,3.40
2023-03-18T01:56:13.372Z,2.78
2023-03-18T01:58:47.758Z,2.45
2023-03-18T02:01:22.776Z,2.75
2023-03-18T02:03:55.183Z,2.35
2023-03-18T02:06:38.311Z,3.20
2023-03-18T02:09:13.228Z,2.33
2023-03-18T02:11:46.163Z,3.15
2023-03-18T02:14:16.614Z,2.95
2023-03-18T02:16:49.964Z,2.65
2023-03-18T02:19:42.068Z,3.15
2023-03-18T02:22:19.598Z,2.83
2023-03-18T02:24:56.311Z,3.47
2023-03-18T02:27:28.989Z,3.03
2023-03-18T02:30:01.535Z,3.13
2023-03-18T02:32:32.401Z,2.78
2023-03-18T02:35:04.877Z,2.75
2023-03-18T02:37:33.801Z,2.45
2023-03-18T02:40:14.394Z,2.70
2023-03-18T02:42:44.917Z,2.47
2023-03-18T02:45:33.186Z,3.38
2023-03-18T02:48:06.065Z,3.47
2023-03-18T02:50:38.396Z,2.80
2023-03-18T02:53:07.850Z,2.83
2023-03-18T02:55:36.190Z,2.85
2023-03-18T02:58:05.977Z,3.05
2023-03-18T03:00:34.315Z,2.35
2023-03-18T03:03:03.916Z,2.40
2023-03-18T03:05:35.016Z,2.45
2023-03-18T03:08:03.499Z,2.78
2023-03-18T03:10:32.978Z,2.85
2023-03-18T03:13:04.201Z,2.55
2023-03-18T03:15:34.108Z,2.80
2023-03-18T03:18:02.464Z,2.90
2023-03-18T03:20:34.749Z,2.75
2023-03-18T03:23:04.140Z,2.83
2023-03-18T03:25:32.911Z,3.25
2023-03-18T03:28:01.772Z,3.05
2023-03-18T03:30:31.960Z,3.22
2023-03-18T03:33:06.102Z,3.80
2023-03-18T03:35:35.510Z,2.90
2023-03-18T03:38:04.181Z,2.97
2023-03-18T03:40:34.252Z,2.90
2023-03-18T03:43:02.866Z,2.67
2023-03-18T03:45:37.069Z,3.35
2023-03-18T03:48:12.764Z,2.78
2023-03-18T03:50:41.882Z,3.17
2023-03-18T03:53:10.666Z,2.97
2023-03-18T03:55:39.233Z,3.53
2023-03-18T03:58:07.608Z,2.95
2023-03-18T04:00:36.232Z,3.38
2023-03-18T04:03:05.214Z,3.58
2023-03-18T04:05:34.901Z,3.70
2023-03-18T04:08:03.242Z,3.28
2023-03-18T04:10:32.085Z,2.65
2023-03-18T04:13:00.544Z,3.33
2023-03-18T04:15:28.868Z,2.90
2023-03-18T04:17:57.308Z,3.30
2023-03-18T04:20:26.261Z,3.47
2023-03-18T04:22:56.022Z,3.17
2023-03-18T04:25:24.714Z,3.25
2023-03-18T04:27:53.534Z,3.78
2023-03-18T04:30:23.572Z,3.20
2023-03-18T04:32:53.360Z,3.03
2023-03-18T04:35:23.475Z,3.42
2023-03-18T04:37:52.629Z,3.55
2023-03-18T04:40:24.897Z,3.65
2023-03-18T04:42:55.885Z,3.60
2023-03-18T04:45:24.982Z,3.30
2023-03-18T04:47:53.602Z,3.85
2023-03-18T04:50:23.712Z,3.45
2023-03-18T04:52:52.045Z,3.20
2023-03-18T04:55:22.162Z,3.58
2023-03-18T04:57:50.717Z,3.65
2023-03-18T05:00:22.246Z,4.28
2023-03-18T05:02:51.617Z,4.20
2023-03-18T05:05:21.050Z,3.55
2023-03-18T05:07:49.437Z,4.00
2023-03-18T05:10:18.834Z,3.47
2023-03-18T05:12:49.657Z,3.70
2023-03-18T05:15:18.488Z,3.90
2023-03-18T05:17:47.426Z,4.13
2023-03-18T05:20:16.268Z,4.22
2023-03-18T05:22:44.619Z,4.70
2023-03-18T05:25:12.914Z,4.43
2023-03-18T05:27:41.726Z,3.70
2023-03-18T05:30:12.898Z,4.35
2023-03-18T05:32:41.520Z,4.13
2023-03-18T05:35:11.670Z,4.45
2023-03-18T05:37:40.240Z,4.28
2023-03-18T05:40:11.653Z,3.85
2023-03-18T05:42:56.842Z,4.38
2023-03-18T05:45:27.446Z,4.40
2023-03-18T05:47:56.209Z,4.15
2023-03-18T05:50:29.907Z,5.22
2023-03-18T05:52:58.594Z,4.95
2023-03-18T05:55:28.172Z,4.47
2023-03-18T05:57:57.019Z,5.10
2023-03-18T06:00:28.693Z,4.93
2023-03-18T06:02:58.255Z,4.63
2023-03-18T06:05:35.991Z,4.53
2023-03-18T06:08:04.725Z,4.10
2023-03-18T06:10:33.422Z,4.68
2023-03-18T06:13:01.941Z,4.75
2023-03-18T06:15:32.284Z,4.63
2023-03-18T06:18:00.874Z,4.22
2023-03-18T06:20:29.581Z,5.18
2023-03-18T06:22:58.171Z,4.65
2023-03-18T06:25:26.752Z,5.93
2023-03-18T06:27:55.162Z,4.30
2023-03-18T06:30:23.443Z,4.10
2023-03-18T06:32:53.697Z,4.45
2023-03-18T06:35:28.923Z,4.78
2023-03-18T06:37:57.489Z,4.57
2023-03-18T06:40:25.858Z,4.75
2023-03-18T06:42:54.591Z,4.38
2023-03-18T06:45:23.337Z,4.35
2023-03-18T06:47:53.614Z,4.93
2023-03-18T06:50:22.366Z,4.55
2023-03-18T06:52:50.917Z,4.97
2023-03-18T06:55:19.536Z,4.57
2023-03-18T06:57:48.167Z,5.10
2023-03-18T07:00:18.243Z,5.50
2023-03-18T07:02:46.732Z,6.10
2023-03-18T07:05:17.116Z,6.13
2023-03-18T07:07:46.173Z,6.65
2023-03-18T07:10:20.263Z,6.47
2023-03-18T07:12:50.221Z,6.45
2023-03-18T07:15:21.014Z,6.60
2023-03-18T07:17:49.930Z,5.97
2023-03-18T07:20:20.633Z,6.55
2023-03-18T07:22:49.285Z,5.97
2023-03-18T07:25:18.103Z,6.22
2023-03-18T07:27:46.814Z,6.15
2023-03-18T07:30:16.148Z,6.35
2023-03-18T07:32:46.055Z,5.30
2023-03-18T07:35:14.923Z,5.57
2023-03-18T07:37:44.886Z,5.60
2023-03-18T07:40:14.067Z,5.43
2023-03-18T07:42:42.426Z,5.15
2023-03-18T07:45:11.568Z,5.65
2023-03-18T07:47:39.964Z,5.43
2023-03-18T07:50:09.532Z,4.75
2023-03-18T07:52:38.420Z,4.97
2023-03-18T07:55:10.075Z,5.13
2023-03-18T07:57:40.579Z,5.22
2023-03-18T08:00:12.343Z,4.75
2023-03-18T08:02:41.315Z,5.63
2023-03-18T08:05:10.959Z,4.35
2023-03-18T08:07:39.483Z,4.57
2023-03-18T08:10:11.301Z,4.80
2023-03-18T08:12:52.140Z,4.97
2023-03-18T08:15:22.486Z,4.85
2023-03-18T08:17:51.064Z,4.53
2023-03-18T08:20:20.023Z,4.90
2023-03-18T08:22:48.470Z,4.88
2023-03-18T08:25:18.453Z,4.97
2023-03-18T08:27:46.855Z,4.78
2023-03-18T08:30:16.414Z,4.20
2023-03-18T08:32:44.917Z,3.97
2023-03-18T08:35:14.005Z,3.63
2023-03-18T08:37:42.516Z,4.05
2023-03-18T08:40:12.292Z,4.13
2023-03-18T08:42:41.977Z,3.90
2023-03-18T08:45:11.225Z,3.40
2023-03-18T08:47:40.015Z,3.88
2023-03-18T08:50:09.927Z,3.28
2023-03-18T08:52:39.746Z,3.78
2023-03-18T08:55:09.513Z,2.88
2023-03-18T08:57:38.990Z,3.58
2023-03-18T09:00:10.994Z,3.25
2023-03-18T09:02:39.485Z,2.92
2023-03-18T09:05:08.555Z,2.95
2023-03-18T09:07:37.042Z,3.22
2023-03-18T09:10:06.171Z,3.10
2023-03-18T09:12:34.462Z,2.65
2023-03-18T09:15:03.099Z,2.92
2023-03-18T09:17:51.003Z,2.67
2023-03-18T09:20:21.110Z,2.58
2023-03-18T09:22:51.934Z,2.70
2023-03-18T09:25:20.714Z,2.92
2023-03-18T09:27:49.081Z,2.50
2023-03-18T09:30:17.505Z,2.45
2023-03-18T09:32:47.241Z,3.30
2023-03-18T09:35:16.650Z,3.13
2023-03-18T09:37:45.084Z,2.53
2023-03-18T09:40:20.919Z,2.88
2023-03-18T09:43:02.556Z,1.92
2023-03-18T09:45:36.866Z,1.88
2023-03-18T09:48:36.296Z,1.80
2023-03-18T09:51:12.090Z,2.47
2023-03-18T09:53:48.246Z,2.22
2023-03-18T09:56:22.001Z,2.20
2023-03-18T09:58:55.096Z,2.22
2023-03-18T10:01:27.320Z,1.98
2023-03-18T10:04:03.760Z,1.85
2023-03-18T10:06:32.760Z,1.55
2023-03-18T10:09:10.708Z,1.90
2023-03-18T10:11:43.796Z,1.48
2023-03-18T10:14:21.805Z,1.65
2023-03-18T10:16:59.561Z,1.52
2023-03-18T10:19:29.907Z,2.10
2023-03-18T10:22:14.502Z,2.03
2023-03-18T10:24:51.636Z,1.67
2023-03-18T10:27:25.648Z,1.85
2023-03-18T10:30:02.910Z,1.92
2023-03-18T10:32:49.644Z,2.60
2023-03-18T10:35:31.122Z,1.42
2023-03-18T10:38:04.460Z,1.65
2023-03-18T10:40:37.146Z,2.03
2023-03-18T10:43:15.064Z,1.80
2023-03-18T10:45:45.927Z,1.60
2023-03-18T10:48:20.160Z,1.80
2023-03-18T10:51:07.092Z,1.38
2023-03-18T10:53:43.366Z,1.80
2023-03-18T10:56:13.766Z,1.83
2023-03-18T10:58:43.559Z,1.83
2023-03-18T11:01:17.555Z,2.17
2023-03-18T11:03:52.784Z,1.20
2023-03-18T11:06:26.254Z,1.17
2023-03-18T11:09:04.731Z,1.38
2023-03-18T11:11:34.795Z,1.80
2023-03-18T11:14:04.945Z,1.75
2023-03-18T11:16:40.392Z,1.20
2023-03-18T11:19:27.853Z,2.15
2023-03-18T11:22:16.533Z,1.42
2023-03-18T11:24:45.060Z,1.80
2023-03-18T11:27:29.647Z,2.00
2023-03-18T11:30:00.934Z,2.17
2023-03-18T11:32:31.283Z,1.98
2023-03-18T11:35:05.697Z,1.90
2023-03-18T11:37:37.756Z,1.50
2023-03-18T11:40:23.618Z,2.33
2023-03-18T11:42:57.739Z,1.45
2023-03-18T11:45:42.193Z,1.77
2023-03-18T11:48:19.043Z,1.25
2023-03-18T11:51:02.255Z,1.50
2023-03-18T11:53:48.351Z,1.45
2023-03-18T11:56:27.863Z,1.50
2023-03-18T11:59:14.498Z,1.73
2023-03-18T12:01:54.460Z,1.67
2023-03-18T12:04:46.458Z,1.83
2023-03-18T12:07:38.260Z,1.50
2023-03-18T12:10:21.232Z,1.60
2023-03-18T12:13:05.606Z,1.70
2023-03-18T12:15:44.919Z,1.50
2023-03-18T12:18:24.756Z,1.42
2023-03-18T12:20:55.572Z,1.92
2023-03-18T12:23:53.013Z,1.63
2023-03-18T12:26:27.544Z,1.55
2023-03-18T12:29:39.097Z,1.52
2023-03-18T12:32:27.886Z,1.40
2023-03-18T12:35:14.193Z,1.55
2023-03-18T12:37:59.634Z,1.50
2023-03-18T12:40:46.608Z,1.40
2023-03-18T12:43:43.014Z,1.60
2023-03-18T12:46:34.112Z,1.58
2023-03-18T12:49:13.146Z,1.40
2023-03-18T12:51:46.726Z,1.30
2023-03-18T12:54:25.428Z,1.50
2023-03-18T12:57:01.029Z,1.55
2023-03-18T12:59:36.320Z,1.23
2023-03-18T13:02:43.920Z,1.50
2023-03-18T13:05:29.237Z,1.77
2023-03-18T13:08:21.456Z,1.70
2023-03-18T13:10:58.510Z,1.55
2023-03-18T13:13:29.791Z,1.50
2023-03-18T13:16:03.600Z,1.50
2023-03-18T13:18:38.159Z,1.42
2023-03-18T13:21:08.482Z,1.30
2023-03-18T13:23:53.033Z,1.40
2023-03-18T13:26:33.396Z,1.10
2023-03-18T13:29:16.669Z,1.50
2023-03-18T13:31:54.333Z,1.17
2023-03-18T13:34:56.299Z,1.60
2023-03-18T13:37:50.426Z,1.60
2023-03-18T13:40:34.529Z,1.23
2023-03-18T13:43:04.442Z,2.95
2023-03-18T13:45:38.565Z,3.10
2023-03-18T13:48:16.318Z,1.42
2023-03-18T13:50:48.676Z,0.93
2023-03-18T13:53:26.216Z,1.20
2023-03-18T13:56:03.791Z,1.40
2023-03-18T13:58:35.752Z,1.60
2023-03-18T14:01:33.462Z,1.50
2023-03-18T14:04:32.840Z,1.40
2023-03-18T14:07:19.620Z,1.77
2023-03-18T14:09:54.837Z,1.20
2023-03-18T14:12:42.905Z,1.15
2023-03-18T14:15:44.336Z,0.90
2023-03-18T14:18:27.228Z,1.13
2023-03-18T14:21:11.972Z,1.35
2023-03-18T14:23:44.151Z,1.50
2023-03-18T14:26:21.651Z,1.55
2023-03-18T14:28:54.861Z,1.33
2023-03-18T14:31:33.500Z,1.27
2023-03-18T14:34:28.160Z,0.95
2023-03-18T14:37:19.235Z,2.00
2023-03-18T14:39:52.919Z,1.00
2023-03-18T14:42:31.454Z,1.10
2023-03-18T14:47:41.133Z,1.45
2023-03-18T14:50:18.178Z,1.63
2023-03-18T14:52:54.383Z,1.77
2023-03-18T14:55:26.996Z,1.58
2023-03-18T14:57:56.600Z,1.70
2023-03-18T15:00:26.142Z,1.55
2023-03-18T15:03:01.712Z,1.77
2023-03-18T15:05:35.752Z,2.03
2023-03-18T15:08:09.927Z,2.60
2023-03-18T15:10:38.754Z,2.35
2023-03-18T15:13:09.857Z,3.45
2023-03-18T15:15:38.826Z,3.58
2023-03-18T15:18:18.520Z,3.33
2023-03-18T15:20:51.285Z,4.82
2023-03-18T15:23:29.049Z,3.13
2023-03-18T15:25:57.705Z,3.27
2023-03-18T15:28:29.507Z,2.85
2023-03-18T15:30:59.653Z,2.63
2023-03-18T15:33:31.409Z,3.17
2023-03-18T15:36:05.823Z,3.85
2023-03-18T15:38:35.629Z,3.85
2023-03-18T15:41:07.373Z,4.18
2023-03-18T15:43:41.112Z,4.05
2023-03-18T15:46:17.479Z,5.05
2023-03-18T15:48:54.507Z,4.65
2023-03-18T15:51:29.850Z,5.30
2023-03-18T15:54:06.840Z,5.90
2023-03-18T15:56:36.563Z,6.22
2023-03-18T15:59:08.930Z,6.75
2023-03-18T16:01:37.746Z,6.75
2023-03-18T16:04:08.439Z,5.70
2023-03-18T16:06:38.490Z,4.80
2023-03-18T16:09:20.472Z,3.92
2023-03-18T16:11:52.727Z,5.68
2023-03-18T16:14:23.627Z,5.85
2023-03-18T16:16:53.104Z,5.18
2023-03-18T16:19:28.077Z,3.55
2023-03-18T16:21:58.379Z,3.67
2023-03-18T16:24:28.379Z,2.90
2023-03-18T16:26:57.349Z,3.80
2023-03-18T16:29:28.888Z,3.00
2023-03-18T16:31:57.544Z,3.42
2023-03-18T16:34:26.158Z,5.22
2023-03-18T16:36:55.142Z,4.93
2023-03-18T16:39:25.490Z,5.80
2023-03-18T16:41:55.211Z,5.88
2023-03-18T16:44:24.312Z,6.63
2023-03-18T16:46:55.476Z,5.20
2023-03-18T16:49:25.449Z,5.10
2023-03-18T16:51:53.820Z,4.45
2023-03-18T16:54:24.141Z,4.10
2023-03-18T16:56:55.907Z,5.30
2023-03-18T16:59:25.187Z,4.57
2023-03-18T17:01:54.120Z,5.68
2023-03-18T17:04:26.725Z,6.78
2023-03-18T17:06:55.559Z,7.35
2023-03-18T17:09:24.872Z,8.30
2023-03-18T17:11:58.753Z,13.27
2023-03-18T17:14:33.791Z,9.35
2023-03-18T17:17:04.589Z,9.98
2023-03-18T17:19:32.905Z,21.10
2023-03-18T17:22:01.289Z,6.68
2023-03-18T17:24:29.905Z,7.97
2023-03-18T17:26:59.611Z,8.68
2023-03-18T17:29:31.324Z,8.80
2023-03-18T17:32:00.161Z,10.20
2023-03-18T17:34:29.123Z,10.50
2023-03-18T17:36:57.503Z,9.75
2023-03-18T17:39:26.385Z,14.77
2023-03-18T17:41:55.118Z,9.65
2023-03-18T17:44:29.748Z,13.27
2023-03-18T17:46:58.859Z,12.50
2023-03-18T17:49:28.689Z,10.65
2023-03-18T17:51:57.697Z,12.05
2023-03-18T17:54:27.087Z,14.02
2023-03-18T17:56:56.003Z,14.90
2023-03-18T17:59:26.116Z,15.52
2023-03-18T18:01:54.609Z,13.98
2023-03-18T18:04:26.124Z,14.75
2023-03-18T18:06:54.690Z,16.10
2023-03-18T18:09:23.311Z,14.48
2023-03-18T18:11:51.779Z,15.18
2023-03-18T18:14:23.564Z,14.18
2023-03-18T18:16:55.809Z,13.43
2023-03-18T18:19:24.531Z,14.38
2023-03-18T18:21:54.785Z,14.40
2023-03-18T18:24:26.942Z,14.20
2023-03-18T18:26:55.733Z,13.88
2023-03-18T18:29:26.316Z,12.70
2023-03-18T18:31:57.087Z,14.07
2023-03-18T18:34:25.594Z,14.52
2023-03-18T18:36:54.321Z,14.63
2023-03-18T18:39:22.845Z,15.18
2023-03-18T18:41:51.494Z,17.00
2023-03-18T18:44:20.153Z,16.85
2023-03-18T18:46:48.644Z,16.70
2023-03-18T18:49:22.406Z,16.73
2023-03-18T18:51:53.156Z,16.98
2023-03-18T18:54:21.865Z,15.23
2023-03-18T18:56:50.807Z,15.80
2023-03-18T18:59:24.374Z,16.95
2023-03-18T19:01:53.487Z,17.52
2023-03-18T19:04:24.154Z,16.15
2023-03-18T19:06:53.610Z,15.65
2023-03-18T19:09:25.018Z,19.40
2023-03-18T19:11:55.978Z,17.63
2023-03-18T19:14:26.634Z,18.05
2023-03-18T19:16:58.932Z,18.90
2023-03-18T19:19:32.103Z,18.10
2023-03-18T19:22:01.124Z,16.98
2023-03-18T19:24:31.081Z,16.00
2023-03-18T19:27:02.831Z,17.15
2023-03-18T19:29:33.122Z,17.55
2023-03-18T19:32:02.164Z,16.35
2023-03-18T19:34:33.888Z,17.23
2023-03-18T19:37:05.831Z,15.52
2023-03-18T19:39:34.799Z,16.48
2023-03-18T19:42:03.316Z,16.15
2023-03-18T19:44:32.558Z,14.40
2023-03-18T19:47:02.972Z,13.15
2023-03-18T19:49:35.843Z,13.48
2023-03-18T19:52:16.407Z,12.50
2023-03-18T19:54:45.508Z,12.93
2023-03-18T19:57:17.339Z,13.77
2023-03-18T19:59:48.545Z,11.27
2023-03-18T20:02:23.436Z,13.30
2023-03-18T20:04:56.366Z,13.70
2023-03-18T20:07:26.368Z,14.32
2023-03-18T20:09:55.929Z,12.25
2023-03-18T20:12:27.384Z,13.43
2023-03-18T20:14:56.611Z,13.93
2023-03-18T20:17:29.588Z,13.75
2023-03-18T20:20:00.499Z,13.68
2023-03-18T20:22:32.883Z,13.30
2023-03-18T20:25:02.304Z,13.82
2023-03-18T20:27:31.424Z,13.88
2023-03-18T20:29:59.907Z,14.13
2023-03-18T20:32:28.583Z,14.48
2023-03-18T20:34:57.165Z,14.43
2023-03-18T20:37:32.081Z,14.00
2023-03-18T20:40:01.142Z,13.88
2023-03-18T20:42:29.785Z,13.88
2023-03-18T20:45:18.361Z,14.68
2023-03-18T20:47:48.691Z,17.55
2023-03-18T20:50:19.877Z,16.15
2023-03-18T20:52:50.620Z,15.10
2023-03-18T20:55:25.353Z,15.65
2023-03-18T20:57:54.901Z,15.63
2023-03-18T21:00:26.968Z,15.02
2023-03-18T21:02:59.532Z,15.18
2023-03-18T21:05:28.169Z,15.88
2023-03-18T21:07:57.978Z,14.90
2023-03-18T21:10:28.197Z,15.98
2023-03-18T21:12:56.697Z,16.42
2023-03-18T21:15:28.102Z,14.95
2023-03-18T21:17:56.787Z,15.45
2023-03-18T21:20:28.796Z,16.10
2023-03-18T21:22:58.633Z,15.60
2023-03-18T21:25:28.711Z,14.15
2023-03-18T21:27:57.716Z,15.13
2023-03-18T21:30:26.155Z,14.48
2023-03-18T21:32:54.650Z,15.00
2023-03-18T21:35:24.889Z,14.65
2023-03-18T21:37:53.917Z,13.38
2023-03-18T21:40:26.141Z,14.45
2023-03-18T21:42:56.716Z,14.77
2023-03-18T21:45:25.446Z,12.75
2023-03-18T21:47:54.070Z,13.00
2023-03-18T21:50:25.057Z,12.40
2023-03-18T21:52:54.965Z,14.52
2023-03-18T21:55:24.900Z,13.10
2023-03-18T21:57:53.481Z,13.40
2023-03-18T22:00:22.422Z,12.85
2023-03-18T22:02:50.964Z,12.95
2023-03-18T22:05:21.872Z,13.15
2023-03-18T22:07:51.300Z,11.32
2023-03-18T22:10:23.038Z,11.50
2023-03-18T22:12:52.893Z,11.82
2023-03-18T22:15:39.989Z,9.43
2023-03-18T22:18:08.588Z,11.20
2023-03-18T22:20:38.308Z,10.93
2023-03-18T22:23:16.162Z,12.23
2023-03-18T22:25:45.861Z,10.75
2023-03-18T22:28:15.867Z,9.50
2023-03-18T22:30:46.388Z,10.90
2023-03-18T22:33:21.066Z,10.45
2023-03-18T22:35:49.748Z,11.60
2023-03-18T22:38:19.960Z,11.57
2023-03-18T22:40:52.626Z,10.40
2023-03-18T22:43:32.098Z,9.50
2023-03-18T22:46:02.348Z,9.35
2023-03-18T22:48:30.933Z,9.30
2023-03-18T22:51:00.200Z,9.25
2023-03-18T22:53:31.518Z,8.70
2023-03-18T22:56:05.390Z,9.43
2023-03-18T22:58:35.365Z,8.38
2023-03-18T23:01:05.050Z,9.27
2023-03-18T23:03:35.291Z,8.85
2023-03-18T23:06:05.021Z,9.30
2023-03-18T23:08:33.370Z,8.82
2023-03-18T23:11:02.560Z,10.30
2023-03-18T23:13:34.809Z,9.65
2023-03-18T23:16:05.376Z,10.75
2023-03-18T23:18:34.149Z,10.38
2023-03-18T23:21:32.073Z,9.30
2023-03-18T23:24:00.923Z,9.80
2023-03-18T23:26:29.290Z,9.32
2023-03-18T23:28:57.684Z,9.70
2023-03-18T23:31:27.634Z,9.57
2023-03-18T23:33:56.077Z,8.77
2023-03-18T23:36:24.504Z,9.38
2023-03-18T23:38:53.065Z,8.85
2023-03-18T23:41:21.404Z,10.55
2023-03-18T23:43:49.885Z,9.32
2023-03-18T23:46:18.311Z,10.20
2023-03-18T23:48:48.285Z,9.30
2023-03-18T23:51:16.830Z,8.27
2023-03-18T23:53:45.685Z,8.73
2023-03-18T23:56:14.861Z,7.15
2023-03-18T23:58:43.293Z,6.70
